sensor_id;sensor_type;location;lat;lon;timestamp;temperature;humidity
24146;DHT22;12308;50.948;4.706;2023-02-20T00:00:28;6.90;99.90
24146;DHT22;12308;50.948;4.706;2023-02-20T00:02:54;7.00;99.90
24146;DHT22;12308;50.948;4.706;2023-02-20T00:05:21;6.90;99.90
24146;DHT22;12308;50.948;4.706;2023-02-20T00:07:47;6.90;99.90
24146;DHT22;12308;50.948;4.706;2023-02-20T00:10:13;6.80;99.90
24146;DHT22;12308;50.948;4.706;2023-02-20T00:12:39;6.80;99.90
24146;DHT22;12308;50.948;4.706;2023-02-20T00:15:05;6.80;99.90
24146;DHT22;12308;50.948;4.706;2023-02-20T00:17:31;6.80;99.90
24146;DHT22;12308;50.948;4.706;2023-02-20T00:19:57;6.80;99.90
24146;DHT22;12308;50.948;4.706;2023-02-20T00:22:23;6.80;99.90
24146;DHT22;12308;50.948;4.706;2023-02-20T00:24:49;6.70;99.90
24146;DHT22;12308;50.948;4.706;2023-02-20T00:27:16;6.60;99.90
24146;DHT22;12308;50.948;4.706;2023-02-20T00:29:43;6.60;99.90
24146;DHT22;12308;50.948;4.706;2023-02-20T00:32:09;6.70;99.90
24146;DHT22;12308;50.948;4.706;2023-02-20T00:34:35;6.80;99.90
24146;DHT22;12308;50.948;4.706;2023-02-20T00:37:01;6.80;99.90
24146;DHT22;12308;50.948;4.706;2023-02-20T00:39:26;6.70;99.90
24146;DHT22;12308;50.948;4.706;2023-02-20T00:41:52;6.70;99.90
24146;DHT22;12308;50.948;4.706;2023-02-20T00:44:18;6.70;99.90
24146;DHT22;12308;50.948;4.706;2023-02-20T00:46:43;6.70;99.90
24146;DHT22;12308;50.948;4.706;2023-02-20T00:49:09;6.80;99.90
24146;DHT22;12308;50.948;4.706;2023-02-20T00:51:35;6.80;99.90
24146;DHT22;12308;50.948;4.706;2023-02-20T00:54:01;6.70;99.90
24146;DHT22;12308;50.948;4.706;2023-02-20T00:56:27;6.70;99.90
24146;DHT22;12308;50.948;4.706;2023-02-20T00:58:53;6.90;99.90
24146;DHT22;12308;50.948;4.706;2023-02-20T01:01:18;6.90;99.90
24146;DHT22;12308;50.948;4.706;2023-02-20T01:03:44;6.90;99.90
24146;DHT22;12308;50.948;4.706;2023-02-20T01:06:10;6.90;99.90
24146;DHT22;12308;50.948;4.706;2023-02-20T01:08:35;6.80;99.90
24146;DHT22;12308;50.948;4.706;2023-02-20T01:11:01;6.80;99.90
24146;DHT22;12308;50.948;4.706;2023-02-20T01:13:27;6.70;99.90
24146;DHT22;12308;50.948;4.706;2023-02-20T01:15:52;6.70;99.90
24146;DHT22;12308;50.948;4.706;2023-02-20T01:18:18;6.70;99.90
24146;DHT22;12308;50.948;4.706;2023-02-20T01:20:44;6.70;99.90
24146;DHT22;12308;50.948;4.706;2023-02-20T01:23:10;6.60;99.90
24146;DHT22;12308;50.948;4.706;2023-02-20T01:25:36;6.60;99.90
24146;DHT22;12308;50.948;4.706;2023-02-20T01:28:02;6.60;99.90
24146;DHT22;12308;50.948;4.706;2023-02-20T01:30:28;6.70;99.90
24146;DHT22;12308;50.948;4.706;2023-02-20T01:32:53;6.50;99.90
24146;DHT22;12308;50.948;4.706;2023-02-20T01:35:19;6.50;99.90
24146;DHT22;12308;50.948;4.706;2023-02-20T01:37:44;6.50;99.90
24146;DHT22;12308;50.948;4.706;2023-02-20T01:40:15;6.60;99.90
24146;DHT22;12308;50.948;4.706;2023-02-20T01:42:41;6.60;99.90
24146;DHT22;12308;50.948;4.706;2023-02-20T01:47:54;6.70;99.90
24146;DHT22;12308;50.948;4.706;2023-02-20T01:50:38;6.70;99.90
24146;DHT22;12308;50.948;4.706;2023-02-20T01:53:16;6.90;99.90
24146;DHT22;12308;50.948;4.706;2023-02-20T01:55:46;6.90;99.90
24146;DHT22;12308;50.948;4.706;2023-02-20T01:58:21;6.90;99.90
24146;DHT22;12308;50.948;4.706;2023-02-20T02:00:47;7.00;99.90
24146;DHT22;12308;50.948;4.706;2023-02-20T02:03:17;7.10;99.90
24146;DHT22;12308;50.948;4.706;2023-02-20T02:05:47;7.10;99.90
24146;DHT22;12308;50.948;4.706;2023-02-20T02:08:15;7.00;99.90
24146;DHT22;12308;50.948;4.706;2023-02-20T02:13:30;7.00;99.90
24146;DHT22;12308;50.948;4.706;2023-02-20T02:16:28;7.00;99.90
24146;DHT22;12308;50.948;4.706;2023-02-20T02:24:53;7.20;99.90
24146;DHT22;12308;50.948;4.706;2023-02-20T02:28:01;7.20;99.90
24146;DHT22;12308;50.948;4.706;2023-02-20T02:44:31;7.40;99.90
24146;DHT22;12308;50.948;4.706;2023-02-20T02:47:22;7.40;99.90
24146;DHT22;12308;50.948;4.706;2023-02-20T02:49:52;7.50;99.90
24146;DHT22;12308;50.948;4.706;2023-02-20T02:52:21;7.50;99.90
24146;DHT22;12308;50.948;4.706;2023-02-20T02:55:07;7.60;99.90
24146;DHT22;12308;50.948;4.706;2023-02-20T02:57:33;7.60;99.90
24146;DHT22;12308;50.948;4.706;2023-02-20T03:00:18;7.70;99.90
24146;DHT22;12308;50.948;4.706;2023-02-20T03:02:59;7.60;99.90
24146;DHT22;12308;50.948;4.706;2023-02-20T03:05:28;7.60;99.90
24146;DHT22;12308;50.948;4.706;2023-02-20T03:08:10;7.80;99.90
24146;DHT22;12308;50.948;4.706;2023-02-20T03:10:40;7.80;99.90
24146;DHT22;12308;50.948;4.706;2023-02-20T03:13:08;7.70;99.90
24146;DHT22;12308;50.948;4.706;2023-02-20T03:15:46;7.70;99.90
24146;DHT22;12308;50.948;4.706;2023-02-20T03:18:32;7.40;99.90
24146;DHT22;12308;50.948;4.706;2023-02-20T03:21:14;7.70;99.90
24146;DHT22;12308;50.948;4.706;2023-02-20T03:23:44;7.60;99.90
24146;DHT22;12308;50.948;4.706;2023-02-20T03:26:17;7.50;99.90
24146;DHT22;12308;50.948;4.706;2023-02-20T03:28:56;7.50;99.90
24146;DHT22;12308;50.948;4.706;2023-02-20T03:31:40;7.30;99.90
24146;DHT22;12308;50.948;4.706;2023-02-20T03:34:13;7.40;99.90
24146;DHT22;12308;50.948;4.706;2023-02-20T03:37:06;7.40;99.90
24146;DHT22;12308;50.948;4.706;2023-02-20T03:39:58;7.30;99.90
24146;DHT22;12308;50.948;4.706;2023-02-20T03:42:47;7.40;99.90
24146;DHT22;12308;50.948;4.706;2023-02-20T03:45:35;7.30;99.90
24146;DHT22;12308;50.948;4.706;2023-02-20T03:48:08;7.40;99.90
24146;DHT22;12308;50.948;4.706;2023-02-20T03:50:35;7.30;99.90
24146;DHT22;12308;50.948;4.706;2023-02-20T03:53:01;7.40;99.90
24146;DHT22;12308;50.948;4.706;2023-02-20T03:55:26;7.40;99.90
24146;DHT22;12308;50.948;4.706;2023-02-20T03:57:55;7.40;99.90
24146;DHT22;12308;50.948;4.706;2023-02-20T04:00:24;7.60;99.90
24146;DHT22;12308;50.948;4.706;2023-02-20T04:02:53;7.50;99.90
24146;DHT22;12308;50.948;4.706;2023-02-20T04:05:23;7.60;99.90
24146;DHT22;12308;50.948;4.706;2023-02-20T04:10:53;7.70;99.90
24146;DHT22;12308;50.948;4.706;2023-02-20T04:13:20;7.70;99.90
24146;DHT22;12308;50.948;4.706;2023-02-20T04:15:46;7.80;99.90
24146;DHT22;12308;50.948;4.706;2023-02-20T04:18:15;7.80;99.90
24146;DHT22;12308;50.948;4.706;2023-02-20T04:20:44;7.90;99.90
24146;DHT22;12308;50.948;4.706;2023-02-20T04:23:16;7.90;99.90
24146;DHT22;12308;50.948;4.706;2023-02-20T04:26:00;7.80;99.90
24146;DHT22;12308;50.948;4.706;2023-02-20T04:28:27;7.90;99.90
24146;DHT22;12308;50.948;4.706;2023-02-20T04:30:53;7.90;99.90
24146;DHT22;12308;50.948;4.706;2023-02-20T04:33:19;8.10;99.90
24146;DHT22;12308;50.948;4.706;2023-02-20T04:35:45;8.00;99.90
24146;DHT22;12308;50.948;4.706;2023-02-20T04:38:11;7.90;99.90
24146;DHT22;12308;50.948;4.706;2023-02-20T04:40:36;8.00;99.90
24146;DHT22;12308;50.948;4.706;2023-02-20T04:43:02;8.00;99.90
24146;DHT22;12308;50.948;4.706;2023-02-20T04:45:28;8.00;99.90
24146;DHT22;12308;50.948;4.706;2023-02-20T04:47:54;8.10;99.90
24146;DHT22;12308;50.948;4.706;2023-02-20T04:50:27;8.10;99.90
24146;DHT22;12308;50.948;4.706;2023-02-20T04:52:54;8.10;99.90
24146;DHT22;12308;50.948;4.706;2023-02-20T04:55:20;8.10;99.90
24146;DHT22;12308;50.948;4.706;2023-02-20T04:57:46;8.00;99.90
24146;DHT22;12308;50.948;4.706;2023-02-20T05:00:13;8.00;99.90
24146;DHT22;12308;50.948;4.706;2023-02-20T05:02:40;8.20;99.90
24146;DHT22;12308;50.948;4.706;2023-02-20T05:05:06;8.10;99.90
24146;DHT22;12308;50.948;4.706;2023-02-20T05:07:38;8.10;99.90
24146;DHT22;12308;50.948;4.706;2023-02-20T05:10:04;8.10;99.90
24146;DHT22;12308;50.948;4.706;2023-02-20T05:12:30;8.00;99.90
24146;DHT22;12308;50.948;4.706;2023-02-20T05:14:55;8.00;99.90
24146;DHT22;12308;50.948;4.706;2023-02-20T05:17:21;8.10;99.90
24146;DHT22;12308;50.948;4.706;2023-02-20T05:19:47;8.10;99.90
24146;DHT22;12308;50.948;4.706;2023-02-20T05:22:12;8.20;99.90
24146;DHT22;12308;50.948;4.706;2023-02-20T05:24:48;8.20;99.90
24146;DHT22;12308;50.948;4.706;2023-02-20T05:27:18;8.20;99.90
24146;DHT22;12308;50.948;4.706;2023-02-20T05:29:49;8.20;99.90
24146;DHT22;12308;50.948;4.706;2023-02-20T05:32:16;8.20;99.90
24146;DHT22;12308;50.948;4.706;2023-02-20T05:34:43;8.20;99.90
24146;DHT22;12308;50.948;4.706;2023-02-20T05:37:10;8.40;99.90
24146;DHT22;12308;50.948;4.706;2023-02-20T05:39:36;8.50;99.90
24146;DHT22;12308;50.948;4.706;2023-02-20T05:42:02;8.50;99.90
24146;DHT22;12308;50.948;4.706;2023-02-20T05:44:27;8.50;99.90
24146;DHT22;12308;50.948;4.706;2023-02-20T05:46:53;8.60;99.90
24146;DHT22;12308;50.948;4.706;2023-02-20T05:49:20;8.50;99.90
24146;DHT22;12308;50.948;4.706;2023-02-20T05:51:46;8.40;99.90
24146;DHT22;12308;50.948;4.706;2023-02-20T05:54:18;8.30;99.90
24146;DHT22;12308;50.948;4.706;2023-02-20T05:56:45;8.40;99.90
24146;DHT22;12308;50.948;4.706;2023-02-20T05:59:11;8.30;99.90
24146;DHT22;12308;50.948;4.706;2023-02-20T06:01:38;8.30;99.90
24146;DHT22;12308;50.948;4.706;2023-02-20T06:04:04;8.40;99.90
24146;DHT22;12308;50.948;4.706;2023-02-20T06:06:35;8.40;99.90
24146;DHT22;12308;50.948;4.706;2023-02-20T06:09:01;8.50;99.90
24146;DHT22;12308;50.948;4.706;2023-02-20T06:11:27;8.40;99.90
24146;DHT22;12308;50.948;4.706;2023-02-20T06:13:52;8.40;99.90
24146;DHT22;12308;50.948;4.706;2023-02-20T06:16:24;8.40;99.90
24146;DHT22;12308;50.948;4.706;2023-02-20T06:18:50;8.30;99.90
24146;DHT22;12308;50.948;4.706;2023-02-20T06:21:15;8.40;99.90
24146;DHT22;12308;50.948;4.706;2023-02-20T06:23:43;8.40;99.90
24146;DHT22;12308;50.948;4.706;2023-02-20T06:26:10;8.40;99.90
24146;DHT22;12308;50.948;4.706;2023-02-20T06:28:37;8.40;99.90
24146;DHT22;12308;50.948;4.706;2023-02-20T06:31:04;8.40;99.90
24146;DHT22;12308;50.948;4.706;2023-02-20T06:33:30;8.40;99.90
24146;DHT22;12308;50.948;4.706;2023-02-20T06:35:56;8.40;99.90
24146;DHT22;12308;50.948;4.706;2023-02-20T06:38:22;8.50;99.90
24146;DHT22;12308;50.948;4.706;2023-02-20T06:40:48;8.60;99.90
24146;DHT22;12308;50.948;4.706;2023-02-20T06:43:13;8.50;99.90
24146;DHT22;12308;50.948;4.706;2023-02-20T06:45:39;8.50;99.90
24146;DHT22;12308;50.948;4.706;2023-02-20T06:48:05;8.50;99.90
24146;DHT22;12308;50.948;4.706;2023-02-20T06:50:30;8.40;99.90
24146;DHT22;12308;50.948;4.706;2023-02-20T06:52:56;8.30;99.90
24146;DHT22;12308;50.948;4.706;2023-02-20T06:55:22;8.20;99.90
24146;DHT22;12308;50.948;4.706;2023-02-20T06:57:47;8.20;99.90
24146;DHT22;12308;50.948;4.706;2023-02-20T07:00:14;8.20;99.90
24146;DHT22;12308;50.948;4.706;2023-02-20T07:02:40;8.30;99.90
24146;DHT22;12308;50.948;4.706;2023-02-20T07:05:06;8.30;99.90
24146;DHT22;12308;50.948;4.706;2023-02-20T07:07:33;8.20;99.90
24146;DHT22;12308;50.948;4.706;2023-02-20T07:09:59;8.30;99.90
24146;DHT22;12308;50.948;4.706;2023-02-20T07:12:32;8.20;99.90
24146;DHT22;12308;50.948;4.706;2023-02-20T07:14:58;8.20;99.90
24146;DHT22;12308;50.948;4.706;2023-02-20T07:17:24;8.20;99.90
24146;DHT22;12308;50.948;4.706;2023-02-20T07:19:50;8.30;99.90
24146;DHT22;12308;50.948;4.706;2023-02-20T07:22:15;8.30;99.90
24146;DHT22;12308;50.948;4.706;2023-02-20T07:24:41;8.30;99.90
24146;DHT22;12308;50.948;4.706;2023-02-20T07:27:07;8.30;99.90
24146;DHT22;12308;50.948;4.706;2023-02-20T07:29:36;8.40;99.90
24146;DHT22;12308;50.948;4.706;2023-02-20T07:32:02;8.40;99.90
24146;DHT22;12308;50.948;4.706;2023-02-20T07:34:28;8.50;99.90
24146;DHT22;12308;50.948;4.706;2023-02-20T07:36:53;8.50;99.90
24146;DHT22;12308;50.948;4.706;2023-02-20T07:39:19;8.40;99.90
24146;DHT22;12308;50.948;4.706;2023-02-20T07:41:45;8.60;99.90
24146;DHT22;12308;50.948;4.706;2023-02-20T07:44:11;8.70;99.90
24146;DHT22;12308;50.948;4.706;2023-02-20T07:46:39;8.70;99.90
24146;DHT22;12308;50.948;4.706;2023-02-20T07:49:05;8.70;99.90
24146;DHT22;12308;50.948;4.706;2023-02-20T07:51:31;8.70;99.90
24146;DHT22;12308;50.948;4.706;2023-02-20T07:53:56;8.80;99.90
24146;DHT22;12308;50.948;4.706;2023-02-20T07:56:23;8.80;99.90
24146;DHT22;12308;50.948;4.706;2023-02-20T07:58:49;8.60;99.90
24146;DHT22;12308;50.948;4.706;2023-02-20T08:01:16;8.70;99.90
24146;DHT22;12308;50.948;4.706;2023-02-20T08:03:42;8.80;99.90
24146;DHT22;12308;50.948;4.706;2023-02-20T08:06:07;8.80;99.90
24146;DHT22;12308;50.948;4.706;2023-02-20T08:08:33;8.90;99.90
24146;DHT22;12308;50.948;4.706;2023-02-20T08:10:59;8.90;99.90
24146;DHT22;12308;50.948;4.706;2023-02-20T08:13:25;8.70;99.90
24146;DHT22;12308;50.948;4.706;2023-02-20T08:15:50;8.70;99.90
24146;DHT22;12308;50.948;4.706;2023-02-20T08:18:16;8.70;99.90
24146;DHT22;12308;50.948;4.706;2023-02-20T08:20:42;8.80;99.90
24146;DHT22;12308;50.948;4.706;2023-02-20T08:23:18;8.90;99.90
24146;DHT22;12308;50.948;4.706;2023-02-20T08:25:45;8.90;99.90
24146;DHT22;12308;50.948;4.706;2023-02-20T08:28:10;9.00;99.90
24146;DHT22;12308;50.948;4.706;2023-02-20T08:30:36;9.00;99.90
24146;DHT22;12308;50.948;4.706;2023-02-20T08:33:01;9.10;99.90
24146;DHT22;12308;50.948;4.706;2023-02-20T08:35:31;9.00;99.90
24146;DHT22;12308;50.948;4.706;2023-02-20T08:38:03;9.10;99.90
24146;DHT22;12308;50.948;4.706;2023-02-20T08:40:29;9.00;99.90
24146;DHT22;12308;50.948;4.706;2023-02-20T08:42:54;9.00;99.90
24146;DHT22;12308;50.948;4.706;2023-02-20T08:45:20;9.00;99.90
24146;DHT22;12308;50.948;4.706;2023-02-20T08:47:47;9.10;99.90
24146;DHT22;12308;50.948;4.706;2023-02-20T08:50:13;9.10;99.90
24146;DHT22;12308;50.948;4.706;2023-02-20T08:52:42;9.10;99.90
24146;DHT22;12308;50.948;4.706;2023-02-20T08:55:08;9.00;99.90
24146;DHT22;12308;50.948;4.706;2023-02-20T08:57:34;9.20;99.90
24146;DHT22;12308;50.948;4.706;2023-02-20T09:00:00;9.30;99.90
24146;DHT22;12308;50.948;4.706;2023-02-20T09:02:25;9.40;99.90
24146;DHT22;12308;50.948;4.706;2023-02-20T09:04:54;9.50;99.90
24146;DHT22;12308;50.948;4.706;2023-02-20T09:07:20;9.50;99.90
24146;DHT22;12308;50.948;4.706;2023-02-20T09:09:46;9.30;99.90
24146;DHT22;12308;50.948;4.706;2023-02-20T09:12:12;9.30;99.90
24146;DHT22;12308;50.948;4.706;2023-02-20T09:14:37;9.30;99.90
24146;DHT22;12308;50.948;4.706;2023-02-20T09:17:04;9.30;99.90
24146;DHT22;12308;50.948;4.706;2023-02-20T09:19:31;9.50;99.90
24146;DHT22;12308;50.948;4.706;2023-02-20T09:21:57;9.50;99.90
24146;DHT22;12308;50.948;4.706;2023-02-20T09:24:23;9.40;99.90
24146;DHT22;12308;50.948;4.706;2023-02-20T09:26:49;9.30;99.90
24146;DHT22;12308;50.948;4.706;2023-02-20T09:29:14;9.20;99.90
24146;DHT22;12308;50.948;4.706;2023-02-20T09:31:40;9.30;99.90
24146;DHT22;12308;50.948;4.706;2023-02-20T09:34:06;9.30;99.90
24146;DHT22;12308;50.948;4.706;2023-02-20T09:36:31;9.50;99.90
24146;DHT22;12308;50.948;4.706;2023-02-20T09:38:57;9.60;99.90
24146;DHT22;12308;50.948;4.706;2023-02-20T09:41:45;9.70;99.90
24146;DHT22;12308;50.948;4.706;2023-02-20T09:44:24;9.70;99.90
24146;DHT22;12308;50.948;4.706;2023-02-20T09:46:52;9.80;99.90
24146;DHT22;12308;50.948;4.706;2023-02-20T09:49:29;9.60;99.90
24146;DHT22;12308;50.948;4.706;2023-02-20T09:52:05;9.70;99.90
24146;DHT22;12308;50.948;4.706;2023-02-20T09:54:40;9.60;99.90
24146;DHT22;12308;50.948;4.706;2023-02-20T09:57:21;9.50;99.90
24146;DHT22;12308;50.948;4.706;2023-02-20T09:59:51;9.50;99.90
24146;DHT22;12308;50.948;4.706;2023-02-20T10:02:22;9.60;99.90
24146;DHT22;12308;50.948;4.706;2023-02-20T10:04:52;9.60;99.90
24146;DHT22;12308;50.948;4.706;2023-02-20T10:07:37;9.60;99.90
24146;DHT22;12308;50.948;4.706;2023-02-20T10:10:23;9.50;99.90
24146;DHT22;12308;50.948;4.706;2023-02-20T10:15:53;9.70;99.90
24146;DHT22;12308;50.948;4.706;2023-02-20T10:24:43;9.70;99.90
24146;DHT22;12308;50.948;4.706;2023-02-20T10:27:19;9.80;99.90
24146;DHT22;12308;50.948;4.706;2023-02-20T10:29:47;9.70;99.90
24146;DHT22;12308;50.948;4.706;2023-02-20T10:32:18;9.80;99.90
24146;DHT22;12308;50.948;4.706;2023-02-20T10:35:03;9.70;99.90
24146;DHT22;12308;50.948;4.706;2023-02-20T10:37:36;9.70;99.90
24146;DHT22;12308;50.948;4.706;2023-02-20T10:42:43;9.90;99.90
24146;DHT22;12308;50.948;4.706;2023-02-20T10:53:43;10.20;99.90
24146;DHT22;12308;50.948;4.706;2023-02-20T10:56:26;10.10;99.90
24146;DHT22;12308;50.948;4.706;2023-02-20T10:59:20;10.10;99.90
24146;DHT22;12308;50.948;4.706;2023-02-20T11:01:54;10.10;99.90
24146;DHT22;12308;50.948;4.706;2023-02-20T11:04:34;10.20;99.90
24146;DHT22;12308;50.948;4.706;2023-02-20T11:07:09;10.30;99.90
24146;DHT22;12308;50.948;4.706;2023-02-20T11:09:36;10.30;99.90
24146;DHT22;12308;50.948;4.706;2023-02-20T11:12:02;10.20;99.90
24146;DHT22;12308;50.948;4.706;2023-02-20T11:14:39;10.00;99.90
24146;DHT22;12308;50.948;4.706;2023-02-20T11:17:12;10.00;99.90
24146;DHT22;12308;50.948;4.706;2023-02-20T11:19:57;10.00;99.90
24146;DHT22;12308;50.948;4.706;2023-02-20T11:22:46;10.10;99.90
24146;DHT22;12308;50.948;4.706;2023-02-20T11:27:40;10.00;99.90
24146;DHT22;12308;50.948;4.706;2023-02-20T11:32:48;9.80;99.90
24146;DHT22;12308;50.948;4.706;2023-02-20T11:37:47;10.00;99.90
24146;DHT22;12308;50.948;4.706;2023-02-20T11:40:27;9.90;99.90
24146;DHT22;12308;50.948;4.706;2023-02-20T11:42:54;9.90;99.90
24146;DHT22;12308;50.948;4.706;2023-02-20T11:45:26;9.80;99.90
24146;DHT22;12308;50.948;4.706;2023-02-20T11:48:10;9.90;99.90
24146;DHT22;12308;50.948;4.706;2023-02-20T11:50:39;9.90;99.90
24146;DHT22;12308;50.948;4.706;2023-02-20T11:53:05;9.90;99.90
24146;DHT22;12308;50.948;4.706;2023-02-20T11:55:33;9.90;99.90
24146;DHT22;12308;50.948;4.706;2023-02-20T11:57:59;10.10;99.90
24146;DHT22;12308;50.948;4.706;2023-02-20T12:00:27;10.10;99.90
24146;DHT22;12308;50.948;4.706;2023-02-20T12:02:55;10.00;99.90
24146;DHT22;12308;50.948;4.706;2023-02-20T12:05:43;10.00;99.90
24146;DHT22;12308;50.948;4.706;2023-02-20T12:11:18;9.90;99.90
24146;DHT22;12308;50.948;4.706;2023-02-20T12:13:48;10.00;99.90
24146;DHT22;12308;50.948;4.706;2023-02-20T12:19:17;10.20;99.90
24146;DHT22;12308;50.948;4.706;2023-02-20T12:33:24;10.30;99.90
24146;DHT22;12308;50.948;4.706;2023-02-20T12:39:07;10.30;99.90
24146;DHT22;12308;50.948;4.706;2023-02-20T12:47:26;10.50;99.90
24146;DHT22;12308;50.948;4.706;2023-02-20T12:50:22;10.60;99.90
24146;DHT22;12308;50.948;4.706;2023-02-20T12:58:28;10.50;99.90
24146;DHT22;12308;50.948;4.706;2023-02-20T13:01:01;10.50;99.90
24146;DHT22;12308;50.948;4.706;2023-02-20T13:03:45;10.40;99.90
24146;DHT22;12308;50.948;4.706;2023-02-20T13:06:42;10.30;99.90
24146;DHT22;12308;50.948;4.706;2023-02-20T13:11:41;10.50;99.90
24146;DHT22;12308;50.948;4.706;2023-02-20T13:14:16;10.60;99.90
24146;DHT22;12308;50.948;4.706;2023-02-20T13:17:06;10.60;99.90
24146;DHT22;12308;50.948;4.706;2023-02-20T13:22:14;10.40;99.90
24146;DHT22;12308;50.948;4.706;2023-02-20T13:24:40;10.60;99.90
24146;DHT22;12308;50.948;4.706;2023-02-20T13:27:08;10.60;99.90
24146;DHT22;12308;50.948;4.706;2023-02-20T13:29:37;10.60;99.90
24146;DHT22;12308;50.948;4.706;2023-02-20T13:34:41;10.60;99.90
24146;DHT22;12308;50.948;4.706;2023-02-20T13:45:49;10.40;99.90
24146;DHT22;12308;50.948;4.706;2023-02-20T13:54:41;10.30;99.90
24146;DHT22;12308;50.948;4.706;2023-02-20T13:56:59;10.40;99.90
24146;DHT22;12308;50.948;4.706;2023-02-20T13:59:29;10.50;99.90
24146;DHT22;12308;50.948;4.706;2023-02-20T14:02:19;10.60;99.90
24146;DHT22;12308;50.948;4.706;2023-02-20T14:07:33;10.60;99.90
24146;DHT22;12308;50.948;4.706;2023-02-20T14:10:00;10.50;99.90
24146;DHT22;12308;50.948;4.706;2023-02-20T14:12:26;10.50;99.90
24146;DHT22;12308;50.948;4.706;2023-02-20T14:14:52;10.70;99.90
24146;DHT22;12308;50.948;4.706;2023-02-20T14:17:20;10.80;99.90
24146;DHT22;12308;50.948;4.706;2023-02-20T14:19:52;10.90;99.90
24146;DHT22;12308;50.948;4.706;2023-02-20T14:22:24;11.00;99.90
24146;DHT22;12308;50.948;4.706;2023-02-20T14:27:45;10.80;99.90
24146;DHT22;12308;50.948;4.706;2023-02-20T14:30:18;10.80;99.90
24146;DHT22;12308;50.948;4.706;2023-02-20T14:32:46;10.80;99.90
24146;DHT22;12308;50.948;4.706;2023-02-20T14:40:41;10.60;99.90
24146;DHT22;12308;50.948;4.706;2023-02-20T14:43:15;10.70;99.90
24146;DHT22;12308;50.948;4.706;2023-02-20T14:45:41;10.80;99.90
24146;DHT22;12308;50.948;4.706;2023-02-20T14:48:21;10.80;99.90
24146;DHT22;12308;50.948;4.706;2023-02-20T14:50:47;10.70;99.90
24146;DHT22;12308;50.948;4.706;2023-02-20T14:53:16;10.70;99.90
24146;DHT22;12308;50.948;4.706;2023-02-20T14:55:42;10.60;99.90
24146;DHT22;12308;50.948;4.706;2023-02-20T14:58:13;10.60;99.90
24146;DHT22;12308;50.948;4.706;2023-02-20T15:00:40;10.60;99.90
24146;DHT22;12308;50.948;4.706;2023-02-20T15:03:09;10.80;99.90
24146;DHT22;12308;50.948;4.706;2023-02-20T15:05:40;10.80;99.90
24146;DHT22;12308;50.948;4.706;2023-02-20T15:10:49;10.60;99.90
24146;DHT22;12308;50.948;4.706;2023-02-20T15:13:20;10.70;99.90
24146;DHT22;12308;50.948;4.706;2023-02-20T15:15:51;10.60;99.90
24146;DHT22;12308;50.948;4.706;2023-02-20T15:20:58;10.70;99.90
24146;DHT22;12308;50.948;4.706;2023-02-20T15:23:35;10.50;99.90
24146;DHT22;12308;50.948;4.706;2023-02-20T15:26:30;10.50;99.90
24146;DHT22;12308;50.948;4.706;2023-02-20T15:29:19;10.60;99.90
24146;DHT22;12308;50.948;4.706;2023-02-20T15:34:24;10.70;99.90
24146;DHT22;12308;50.948;4.706;2023-02-20T15:36:51;10.50;99.90
24146;DHT22;12308;50.948;4.706;2023-02-20T15:39:17;10.60;99.90
24146;DHT22;12308;50.948;4.706;2023-02-20T15:41:43;10.60;99.90
24146;DHT22;12308;50.948;4.706;2023-02-20T15:44:09;10.60;99.90
24146;DHT22;12308;50.948;4.706;2023-02-20T15:46:35;10.70;99.90
24146;DHT22;12308;50.948;4.706;2023-02-20T15:49:01;10.50;99.90
24146;DHT22;12308;50.948;4.706;2023-02-20T15:51:28;10.60;99.90
24146;DHT22;12308;50.948;4.706;2023-02-20T15:53:56;10.50;99.90
24146;DHT22;12308;50.948;4.706;2023-02-20T15:56:23;10.50;99.90
24146;DHT22;12308;50.948;4.706;2023-02-20T15:58:49;10.60;99.90
24146;DHT22;12308;50.948;4.706;2023-02-20T16:01:15;10.50;99.90
24146;DHT22;12308;50.948;4.706;2023-02-20T16:03:41;10.60;99.90
24146;DHT22;12308;50.948;4.706;2023-02-20T16:06:08;10.60;99.90
24146;DHT22;12308;50.948;4.706;2023-02-20T16:08:33;10.50;99.90
24146;DHT22;12308;50.948;4.706;2023-02-20T16:10:59;10.50;99.90
24146;DHT22;12308;50.948;4.706;2023-02-20T16:13:37;10.70;99.90
24146;DHT22;12308;50.948;4.706;2023-02-20T16:16:25;10.60;99.90
24146;DHT22;12308;50.948;4.706;2023-02-20T16:18:53;10.60;99.90
24146;DHT22;12308;50.948;4.706;2023-02-20T16:21:20;10.60;99.90
24146;DHT22;12308;50.948;4.706;2023-02-20T16:23:46;10.60;99.90
24146;DHT22;12308;50.948;4.706;2023-02-20T16:26:18;10.70;99.90
24146;DHT22;12308;50.948;4.706;2023-02-20T16:28:48;10.60;99.90
24146;DHT22;12308;50.948;4.706;2023-02-20T16:31:14;10.60;99.90
24146;DHT22;12308;50.948;4.706;2023-02-20T16:33:40;10.60;99.90
24146;DHT22;12308;50.948;4.706;2023-02-20T16:36:06;10.60;99.90
24146;DHT22;12308;50.948;4.706;2023-02-20T16:38:32;10.50;99.90
24146;DHT22;12308;50.948;4.706;2023-02-20T16:40:57;10.40;99.90
24146;DHT22;12308;50.948;4.706;2023-02-20T16:43:24;10.40;99.90
24146;DHT22;12308;50.948;4.706;2023-02-20T16:45:50;10.50;99.90
24146;DHT22;12308;50.948;4.706;2023-02-20T16:48:18;10.40;99.90
24146;DHT22;12308;50.948;4.706;2023-02-20T16:50:47;10.40;99.90
24146;DHT22;12308;50.948;4.706;2023-02-20T16:53:14;10.30;99.90
24146;DHT22;12308;50.948;4.706;2023-02-20T16:55:40;10.40;99.90
24146;DHT22;12308;50.948;4.706;2023-02-20T16:58:11;10.30;99.90
24146;DHT22;12308;50.948;4.706;2023-02-20T17:00:39;10.50;99.90
24146;DHT22;12308;50.948;4.706;2023-02-20T17:03:06;10.30;99.90
24146;DHT22;12308;50.948;4.706;2023-02-20T17:05:34;10.30;99.90
24146;DHT22;12308;50.948;4.706;2023-02-20T17:08:01;10.30;99.90
24146;DHT22;12308;50.948;4.706;2023-02-20T17:10:27;10.20;99.90
24146;DHT22;12308;50.948;4.706;2023-02-20T17:12:54;10.20;99.90
24146;DHT22;12308;50.948;4.706;2023-02-20T17:15:21;10.10;99.90
24146;DHT22;12308;50.948;4.706;2023-02-20T17:17:47;10.30;99.90
24146;DHT22;12308;50.948;4.706;2023-02-20T17:20:19;10.30;99.90
24146;DHT22;12308;50.948;4.706;2023-02-20T17:22:47;10.40;99.90
24146;DHT22;12308;50.948;4.706;2023-02-20T17:25:18;10.40;99.90
24146;DHT22;12308;50.948;4.706;2023-02-20T17:27:44;10.40;99.90
24146;DHT22;12308;50.948;4.706;2023-02-20T17:30:10;10.30;99.90
24146;DHT22;12308;50.948;4.706;2023-02-20T17:32:36;10.30;99.90
24146;DHT22;12308;50.948;4.706;2023-02-20T17:35:02;10.20;99.90
24146;DHT22;12308;50.948;4.706;2023-02-20T17:37:27;10.20;99.90
24146;DHT22;12308;50.948;4.706;2023-02-20T17:39:58;10.30;99.90
24146;DHT22;12308;50.948;4.706;2023-02-20T17:42:25;10.10;99.90
24146;DHT22;12308;50.948;4.706;2023-02-20T17:44:51;10.10;99.90
24146;DHT22;12308;50.948;4.706;2023-02-20T17:47:17;10.20;99.90
24146;DHT22;12308;50.948;4.706;2023-02-20T17:49:43;10.10;99.90
24146;DHT22;12308;50.948;4.706;2023-02-20T17:52:09;10.20;99.90
24146;DHT22;12308;50.948;4.706;2023-02-20T17:54:35;10.30;99.90
24146;DHT22;12308;50.948;4.706;2023-02-20T17:57:01;10.30;99.90
24146;DHT22;12308;50.948;4.706;2023-02-20T17:59:26;10.40;99.90
24146;DHT22;12308;50.948;4.706;2023-02-20T18:01:53;10.40;99.90
24146;DHT22;12308;50.948;4.706;2023-02-20T18:04:19;10.40;99.90